Time;durP1;ratioP1;P1;durP2;ratioP2;P2;SDS_P1;SDS_P2;PMS_P1;PMS_P2;Temp;Humidity;BMP_temperature;BMP_pressure;BME280_temperature;BME280_humidity;BME280_pressure;Samples;Min_cycle;Max_cycle;Signal;HPM_P1;HPM_P2
2022/05/25 00:05:43;;;;;;;14.10;4.22;;;;;;;13.03;75.68;100410.56;5098600;28;20059;-74
2022/05/25 00:11:31;;;;;;;6.55;3.15;;;;;;;13.21;76.92;100482.41;5099326;28;20090;-75
2022/05/25 00:20:40;;;;;;;8.85;3.35;;;;;;;13.00;77.94;100501.94;5098739;28;20042;-75
2022/05/25 00:23:50;;;;;;;6.32;4.00;;;;;;;13.17;77.82;100525.47;5081991;28;20123;-75
2022/05/25 00:29:37;;;;;;;5.22;3.15;;;;;;;13.19;77.42;100515.81;5077643;28;20055;-75
2022/05/25 00:32:07;;;;;;;4.88;3.75;;;;;;;12.56;78.69;100461.00;5060400;28;20119;-75
2022/05/25 00:35:16;;;;;;;6.93;3.70;;;;;;;12.51;78.83;100447.88;5068227;28;20114;-75
2022/05/25 00:37:42;;;;;;;9.75;3.70;;;;;;;12.70;78.69;100472.31;5072854;28;20064;-75
2022/05/25 00:50:23;;;;;;;7.25;3.95;;;;;;;12.39;80.26;100501.47;5071708;28;20392;-75
2022/05/25 00:52:50;;;;;;;7.70;3.30;;;;;;;12.30;81.61;100530.47;5060955;28;20072;-76
2022/05/25 00:55:28;;;;;;;7.35;4.75;;;;;;;12.15;81.94;100498.97;5049101;28;20056;-76
2022/05/25 00:57:58;;;;;;;6.78;3.67;;;;;;;11.97;82.21;100482.41;5067608;28;20166;-75
2022/05/25 01:00:29;;;;;;;4.95;3.45;;;;;;;12.12;81.59;100470.94;5046304;28;20114;-75
2022/05/25 01:03:22;;;;;;;6.15;3.95;;;;;;;12.20;82.02;100481.44;5062006;28;20040;-76
2022/05/25 01:06:00;;;;;;;8.15;4.53;;;;;;;12.53;80.72;100476.84;5047169;28;20052;-75
2022/05/25 01:08:47;;;;;;;13.57;10.68;;;;;;;12.14;81.79;100476.19;5056832;28;20063;-77
2022/05/25 01:11:24;;;;;;;19.85;13.45;;;;;;;12.08;82.14;100477.13;5062564;28;20172;-75
2022/05/25 01:14:15;;;;;;;9.13;7.82;;;;;;;12.10;82.23;100474.44;5062720;28;20050;-75
2022/05/25 01:16:55;;;;;;;10.35;8.20;;;;;;;12.07;82.75;100496.38;5065457;28;20048;-74
2022/05/25 01:19:59;;;;;;;9.98;5.10;;;;;;;12.03;83.06;100511.31;5067050;28;20048;-74
2022/05/25 01:22:52;;;;;;;11.20;10.23;;;;;;;12.36;83.14;100554.13;5072500;28;20048;-77
2022/05/25 01:25:39;;;;;;;14.27;12.85;;;;;;;12.09;83.01;100499.03;5077384;28;20032;-75
2022/05/25 01:28:42;;;;;;;30.50;11.13;;;;;;;11.92;83.16;100486.81;5083048;28;20016;-74
2022/05/25 01:31:24;;;;;;;11.63;9.27;;;;;;;11.91;83.69;100479.78;5059338;28;20332;-75
2022/05/25 01:33:59;;;;;;;10.95;7.38;;;;;;;12.43;83.43;100545.31;5084304;28;20110;-76
2022/05/25 01:36:50;;;;;;;11.15;8.85;;;;;;;11.91;83.35;100487.69;5078008;28;20037;-75
2022/05/25 01:39:26;;;;;;;9.15;8.25;;;;;;;11.90;83.41;100485.94;5064361;28;20429;-75
2022/05/25 01:42:23;;;;;;;15.32;9.55;;;;;;;12.10;83.31;100487.59;5051118;28;20051;-76
2022/05/25 01:44:54;;;;;;;19.63;12.45;;;;;;;11.96;84.72;100491.19;5070081;28;20049;-75
2022/05/25 01:47:22;;;;;;;24.90;22.40;;;;;;;12.30;83.96;100534.88;5059945;28;20048;-77
2022/05/25 01:50:01;;;;;;;43.38;39.17;;;;;;;12.17;83.98;100503.34;5072157;28;20028;-76
2022/05/25 01:52:35;;;;;;;50.17;44.90;;;;;;;12.25;84.12;100527.00;5059242;28;20032;-77
2022/05/25 01:55:33;;;;;;;20.45;18.15;;;;;;;11.91;83.96;100490.31;5063580;28;20097;-76
2022/05/25 01:58:05;;;;;;;8.32;5.93;;;;;;;11.91;84.51;100507.84;5063386;28;20103;-76
2022/05/25 02:00:42;;;;;;;9.80;5.25;;;;;;;11.94;84.98;100542.00;5053891;28;20359;-76
2022/05/25 02:10:00;;;;;;;7.53;4.18;;;;;;;11.86;84.58;100502.56;5073147;28;20598;-75
2022/05/25 02:13:19;;;;;;;7.22;5.18;;;;;;;11.59;84.80;100479.91;5062197;28;20040;-76
2022/05/25 02:16:22;;;;;;;12.73;11.48;;;;;;;11.94;85.52;100532.41;5074650;28;20043;-76
2022/05/25 02:18:59;;;;;;;26.23;23.73;;;;;;;12.07;85.79;100538.47;5050030;28;20043;-75
2022/05/25 02:25:04;;;;;;;33.65;30.23;;;;;;;11.69;85.45;100501.78;5067720;28;20111;-74
2022/05/25 02:27:53;;;;;;;30.47;27.40;;;;;;;12.08;84.33;100519.19;5053686;28;20052;-75
2022/05/25 02:30:24;;;;;;;21.95;19.67;;;;;;;11.99;84.59;100512.22;5009171;28;20041;-77
2022/05/25 02:32:59;;;;;;;21.65;19.42;;;;;;;12.16;84.50;100548.94;5033013;28;20116;-78
2022/05/25 02:35:25;;;;;;;14.20;10.45;;;;;;;11.83;85.08;100531.53;5041503;28;20045;-75
2022/05/25 02:37:59;;;;;;;19.52;17.30;;;;;;;11.90;85.33;100511.38;5053279;28;20104;-75
2022/05/25 02:40:26;;;;;;;;;;;;;;;12.36;84.25;100574.28;5011249;28;20068;-76
2022/05/25 02:43:23;;;;;;;18.92;16.98;;;;;;;11.91;84.78;100515.75;5037083;28;19908;-77
2022/05/25 02:45:48;;;;;;;17.52;15.77;;;;;;;12.09;84.34;100535.84;5054162;28;20036;-76
2022/05/25 02:48:15;;;;;;;10.75;9.68;;;;;;;11.76;85.53;100540.31;5061388;28;20036;-75
2022/05/25 02:50:41;;;;;;;8.45;6.97;;;;;;;11.61;85.86;100521.06;5035829;28;20037;-76
2022/05/25 02:53:10;;;;;;;19.38;12.15;;;;;;;12.06;85.59;100576.19;5051326;28;20342;-76
2022/05/25 02:55:35;;;;;;;9.65;7.63;;;;;;;11.59;85.84;100514.94;5052916;28;20476;-76
2022/05/25 02:58:02;;;;;;;10.73;6.95;;;;;;;11.54;86.30;100521.06;5051728;28;20024;-76
2022/05/25 03:00:27;;;;;;;5.38;4.00;;;;;;;11.94;85.52;100569.22;5051763;28;20033;-76
2022/05/25 03:02:56;;;;;;;7.15;5.00;;;;;;;11.63;85.91;100510.53;5039949;28;20420;-75
2022/05/25 03:05:23;;;;;;;5.78;4.47;;;;;;;11.77;85.73;100556.06;5060557;28;20056;-75
2022/05/25 03:07:48;;;;;;;6.53;4.40;;;;;;;11.66;86.41;100541.19;5039476;28;20036;-76
2022/05/25 03:10:16;;;;;;;5.75;3.92;;;;;;;11.68;86.02;100555.22;5038037;28;20045;-75
2022/05/25 03:12:42;;;;;;;8.55;4.40;;;;;;;12.03;85.69;100578.81;5057631;28;20107;-75
2022/05/25 03:15:09;;;;;;;10.82;4.65;;;;;;;12.20;85.23;100600.69;5055738;28;20105;-75
2022/05/25 03:17:38;;;;;;;6.50;4.38;;;;;;;11.91;85.39;100547.28;5063849;28;20053;-75
2022/05/25 03:20:03;;;;;;;6.65;4.57;;;;;;;12.52;84.35;100598.78;5057394;28;20025;-75
2022/05/25 03:22:48;;;;;;;9.13;5.25;;;;;;;12.17;84.05;100548.06;5038525;28;20523;-75
2022/05/25 03:25:14;;;;;;;10.75;4.72;;;;;;;12.72;83.00;100618.00;5043926;28;20041;-75
2022/05/25 03:27:43;;;;;;;9.18;5.05;;;;;;;12.34;83.90;100600.63;5048173;28;20031;-76
2022/05/25 03:30:09;;;;;;;7.72;4.93;;;;;;;11.83;85.06;100555.19;5040399;28;20103;-74
2022/05/25 03:32:35;;;;;;;6.50;3.95;;;;;;;12.04;85.33;100613.00;5049219;28;20047;-76
2022/05/25 03:35:18;;;;;;;6.57;4.25;;;;;;;11.99;85.23;100571.81;5066849;28;20387;-76
2022/05/25 03:38:30;;;;;;;5.80;4.27;;;;;;;11.86;85.58;100584.09;5057033;28;20081;-76
2022/05/25 03:40:58;;;;;;;9.77;5.65;;;;;;;11.97;85.40;100577.09;5041160;28;20098;-76
2022/05/25 03:43:31;;;;;;;10.27;5.15;;;;;;;11.95;85.89;100625.31;5043609;28;20045;-76
2022/05/25 03:45:58;;;;;;;9.77;6.10;;;;;;;12.17;85.83;100639.25;5059488;28;20112;-76
2022/05/25 03:48:24;;;;;;;11.10;6.15;;;;;;;11.83;85.74;100608.63;5044758;28;20024;-76
2022/05/25 03:50:51;;;;;;;7.60;5.30;;;;;;;12.18;84.89;100593.69;5053774;28;20059;-75
2022/05/25 03:53:54;;;;;;;7.88;5.47;;;;;;;11.86;85.94;100606.88;5072060;28;20552;-74
2022/05/25 03:56:22;;;;;;;9.02;5.78;;;;;;;12.21;85.92;100643.66;5073128;28;20043;-76
2022/05/25 03:58:48;;;;;;;9.35;5.60;;;;;;;12.27;85.94;100641.00;5070096;28;20057;-76
2022/05/25 04:01:19;;;;;;;8.23;5.07;;;;;;;11.96;85.84;100601.66;5051798;28;20523;-76
2022/05/25 04:04:22;;;;;;;7.85;5.65;;;;;;;12.44;85.14;100654.97;5051476;28;20037;-76
2022/05/25 04:06:48;;;;;;;7.97;5.97;;;;;;;11.82;86.04;100606.91;5066634;28;20480;-77
2022/05/25 04:09:14;;;;;;;9.55;4.90;;;;;;;11.95;85.84;100599.88;5053622;28;20028;-75
2022/05/25 04:11:43;;;;;;;8.40;4.90;;;;;;;12.12;85.84;100591.06;5047138;28;20040;-75
2022/05/25 04:14:15;;;;;;;11.88;5.85;;;;;;;12.05;85.75;100587.56;5047078;28;20044;-76
2022/05/25 04:16:41;;;;;;;7.30;4.90;;;;;;;12.20;86.07;100627.00;5063237;28;20096;-76
2022/05/25 04:19:07;;;;;;;16.58;5.70;;;;;;;12.17;85.91;100619.09;5065800;28;20572;-76
2022/05/25 04:28:42;;;;;;;8.50;4.90;;;;;;;12.83;84.07;100638.97;5063629;28;20152;-74
2022/05/25 04:31:08;;;;;;;10.02;6.00;;;;;;;12.95;83.64;100646.81;5052681;28;20389;-76
2022/05/25 04:43:24;;;;;;;10.15;5.07;;;;;;;12.55;84.14;100606.66;5054423;28;20102;-77
2022/05/25 04:45:52;;;;;;;7.72;6.20;;;;;;;12.70;83.70;100598.69;5036653;28;20457;-76
2022/05/25 04:48:21;;;;;;;11.23;8.68;;;;;;;12.77;83.85;100604.78;5043171;28;20043;-75
2022/05/25 04:54:08;;;;;;;11.55;10.27;;;;;;;13.09;83.17;100599.31;5053897;28;20072;-75
2022/05/25 04:59:17;;;;;;;9.10;7.43;;;;;;;13.30;82.24;100578.09;5051578;28;20395;-76
2022/05/25 05:01:43;;;;;;;10.70;7.80;;;;;;;13.85;80.99;100618.00;5059692;28;20045;-75
2022/05/25 05:04:09;;;;;;;10.00;6.88;;;;;;;13.98;79.56;100597.63;5046617;28;20454;-75
2022/05/25 05:06:37;;;;;;;11.98;7.05;;;;;;;14.32;79.80;100651.78;5049416;28;20021;-75
2022/05/25 05:09:06;;;;;;;22.38;6.13;;;;;;;14.17;79.30;100612.41;5049668;28;20083;-74
2022/05/25 05:11:33;;;;;;;6.85;5.35;;;;;;;14.14;79.58;100604.50;5032872;28;20123;-76
2022/05/25 05:14:00;;;;;;;7.18;4.72;;;;;;;14.38;79.29;100616.53;5048478;28;20060;-75
2022/05/25 05:16:26;;;;;;;7.55;4.97;;;;;;;14.71;78.54;100639.03;5025178;28;20048;-74
2022/05/25 05:18:51;;;;;;;7.97;5.45;;;;;;;14.80;77.29;100616.00;5045366;28;20032;-76
2022/05/25 05:21:17;;;;;;;9.13;6.05;;;;;;;15.22;76.84;100642.69;5048243;28;20052;-75
2022/05/25 05:23:43;;;;;;;7.45;5.43;;;;;;;15.18;76.09;100634.81;5031887;28;20069;-76
2022/05/25 05:26:09;;;;;;;8.32;5.93;;;;;;;14.89;76.68;100610.59;5021831;28;20080;-75
2022/05/25 05:28:38;;;;;;;8.82;5.82;;;;;;;15.09;75.82;100605.88;5053743;28;20028;-75
2022/05/25 05:31:04;;;;;;;9.93;6.28;;;;;;;15.17;75.21;100633.09;5078844;28;20111;-75
2022/05/25 05:33:30;;;;;;;15.27;7.20;;;;;;;15.34;74.75;100619.59;5071954;28;20086;-75
2022/05/25 05:36:21;;;;;;;10.38;5.57;;;;;;;15.35;75.50;100652.19;5069533;28;20052;-75
2022/05/25 05:39:19;;;;;;;11.18;7.13;;;;;;;15.81;74.60;100635.59;5060670;28;20486;-76
2022/05/25 05:41:55;;;;;;;7.90;5.72;;;;;;;16.07;73.75;100652.78;5048945;28;20094;-75
2022/05/25 05:44:25;;;;;;;13.38;5.57;;;;;;;16.22;74.05;100657.75;5055310;28;20036;-76
2022/05/25 05:46:53;;;;;;;12.35;7.25;;;;;;;16.17;73.01;100614.63;5069363;28;20042;-75
2022/05/25 05:49:19;;;;;;;8.55;6.90;;;;;;;16.62;72.61;100671.09;5055884;28;20044;-75
2022/05/25 05:51:44;;;;;;;14.65;6.97;;;;;;;16.37;73.45;100624.81;5077118;28;20448;-75
2022/05/25 05:54:11;;;;;;;12.27;7.85;;;;;;;16.52;73.27;100674.81;5069799;28;20049;-75
2022/05/25 05:56:37;;;;;;;9.50;7.65;;;;;;;16.39;71.82;100626.53;5062662;28;20036;-75
2022/05/25 05:59:18;;;;;;;7.70;6.70;;;;;;;16.99;70.40;100627.03;5068312;28;20442;-75
2022/05/25 06:01:45;;;;;;;9.98;7.28;;;;;;;17.39;70.28;100634.03;5075874;28;20115;-75
2022/05/25 06:04:11;;;;;;;10.15;7.18;;;;;;;17.83;69.26;100683.38;5053231;28;20070;-75
2022/05/25 06:06:37;;;;;;;13.68;7.90;;;;;;;17.67;69.42;100643.03;5068528;28;20028;-75
2022/05/25 06:09:02;;;;;;;10.70;6.78;;;;;;;17.57;69.20;100640.69;5061939;28;20076;-75
2022/05/25 06:11:28;;;;;;;10.45;7.82;;;;;;;17.89;67.85;100645.19;5044843;28;20033;-75
2022/05/25 06:13:53;;;;;;;8.43;6.78;;;;;;;18.25;67.56;100687.59;5070381;28;20045;-75
2022/05/25 06:21:48;;;;;;;11.35;7.97;;;;;;;17.63;69.02;100633.44;5066167;28;20063;-76
2022/05/25 06:24:13;;;;;;;12.25;6.90;;;;;;;18.18;68.76;100667.44;5054916;28;20064;-76
